sensor_id;sensor_type;location;lat;lon;timestamp;pressure;altitude;pressure_sealevel;temperature;humidity
48156;BME280;35568;48.104;11.782;2023-01-29T00:00:43;96216.43;;;2.29;47.38
48156;BME280;35568;48.104;11.782;2023-01-29T00:03:10;96218.02;;;2.72;47.12
48156;BME280;35568;48.104;11.782;2023-01-29T00:05:37;96217.14;;;2.65;47.09
48156;BME280;35568;48.104;11.782;2023-01-29T00:08:04;96215.18;;;2.66;46.82
48156;BME280;35568;48.104;11.782;2023-01-29T00:10:31;96215.33;;;2.59;47.14
48156;BME280;35568;48.104;11.782;2023-01-29T00:12:58;96215.31;;;2.60;46.87
48156;BME280;35568;48.104;11.782;2023-01-29T00:15:25;96212.15;;;2.36;46.98
48156;BME280;35568;48.104;11.782;2023-01-29T00:17:52;96212.79;;;2.21;47.32
48156;BME280;35568;48.104;11.782;2023-01-29T00:20:19;96210.32;;;2.49;47.55
48156;BME280;35568;48.104;11.782;2023-01-29T00:22:46;96214.47;;;2.18;47.82
48156;BME280;35568;48.104;11.782;2023-01-29T00:25:13;96214.01;;;2.42;47.94
48156;BME280;35568;48.104;11.782;2023-01-29T00:27:40;96216.62;;;2.09;47.76
48156;BME280;35568;48.104;11.782;2023-01-29T00:30:08;96220.08;;;2.16;47.79
48156;BME280;35568;48.104;11.782;2023-01-29T00:32:35;96223.30;;;2.26;47.83
48156;BME280;35568;48.104;11.782;2023-01-29T00:35:02;96222.55;;;2.38;47.79
48156;BME280;35568;48.104;11.782;2023-01-29T00:37:29;96225.09;;;2.06;48.21
48156;BME280;35568;48.104;11.782;2023-01-29T00:39:57;96227.82;;;2.15;48.16
48156;BME280;35568;48.104;11.782;2023-01-29T00:42:24;96229.66;;;2.69;48.05
48156;BME280;35568;48.104;11.782;2023-01-29T00:44:50;96234.58;;;2.18;48.29
48156;BME280;35568;48.104;11.782;2023-01-29T00:47:17;96232.42;;;2.48;47.98
48156;BME280;35568;48.104;11.782;2023-01-29T00:49:44;96234.13;;;2.39;48.30
48156;BME280;35568;48.104;11.782;2023-01-29T00:52:11;96228.77;;;2.55;48.20
48156;BME280;35568;48.104;11.782;2023-01-29T00:54:38;96232.95;;;2.77;48.38
48156;BME280;35568;48.104;11.782;2023-01-29T00:57:05;96227.05;;;2.32;48.27
48156;BME280;35568;48.104;11.782;2023-01-29T00:59:32;96229.00;;;2.17;48.26
48156;BME280;35568;48.104;11.782;2023-01-29T01:01:59;96230.42;;;1.96;48.56
48156;BME280;35568;48.104;11.782;2023-01-29T01:04:26;96228.68;;;2.01;48.72
48156;BME280;35568;48.104;11.782;2023-01-29T01:06:53;96230.52;;;2.04;48.70
48156;BME280;35568;48.104;11.782;2023-01-29T01:09:20;96225.45;;;2.23;48.81
48156;BME280;35568;48.104;11.782;2023-01-29T01:11:47;96222.82;;;2.48;48.73
48156;BME280;35568;48.104;11.782;2023-01-29T01:14:14;96223.17;;;2.28;48.64
48156;BME280;35568;48.104;11.782;2023-01-29T01:16:41;96224.67;;;2.04;48.88
48156;BME280;35568;48.104;11.782;2023-01-29T01:19:08;96228.68;;;2.14;48.61
48156;BME280;35568;48.104;11.782;2023-01-29T01:21:35;96229.50;;;2.15;48.60
48156;BME280;35568;48.104;11.782;2023-01-29T01:24:03;96232.62;;;2.21;48.36
48156;BME280;35568;48.104;11.782;2023-01-29T01:26:30;96238.84;;;2.17;48.54
48156;BME280;35568;48.104;11.782;2023-01-29T01:28:57;96236.93;;;2.15;48.57
48156;BME280;35568;48.104;11.782;2023-01-29T01:31:24;96233.27;;;2.47;48.53
48156;BME280;35568;48.104;11.782;2023-01-29T01:33:51;96228.64;;;2.19;48.92
48156;BME280;35568;48.104;11.782;2023-01-29T01:36:18;96227.71;;;2.14;49.09
48156;BME280;35568;48.104;11.782;2023-01-29T01:38:45;96228.81;;;2.12;48.59
48156;BME280;35568;48.104;11.782;2023-01-29T01:41:16;96226.75;;;2.42;48.27
48156;BME280;35568;48.104;11.782;2023-01-29T01:43:52;96234.57;;;2.09;48.40
48156;BME280;35568;48.104;11.782;2023-01-29T01:46:20;96235.70;;;2.09;48.28
48156;BME280;35568;48.104;11.782;2023-01-29T01:48:50;96231.58;;;1.86;48.46
48156;BME280;35568;48.104;11.782;2023-01-29T01:51:19;96233.90;;;1.85;48.18
48156;BME280;35568;48.104;11.782;2023-01-29T01:53:50;96233.08;;;1.99;48.54
48156;BME280;35568;48.104;11.782;2023-01-29T01:56:23;96231.53;;;2.02;48.67
48156;BME280;35568;48.104;11.782;2023-01-29T01:58:55;96235.30;;;2.09;48.40
48156;BME280;35568;48.104;11.782;2023-01-29T02:01:24;96233.60;;;1.96;48.45
48156;BME280;35568;48.104;11.782;2023-01-29T02:03:55;96230.35;;;2.10;48.58
48156;BME280;35568;48.104;11.782;2023-01-29T02:06:24;96231.73;;;2.02;48.36
48156;BME280;35568;48.104;11.782;2023-01-29T02:08:55;96235.75;;;1.78;48.24
48156;BME280;35568;48.104;11.782;2023-01-29T02:11:24;96240.59;;;1.97;48.48
48156;BME280;35568;48.104;11.782;2023-01-29T02:13:51;96241.02;;;1.90;48.32
48156;BME280;35568;48.104;11.782;2023-01-29T02:16:19;96240.78;;;1.99;48.16
48156;BME280;35568;48.104;11.782;2023-01-29T02:18:47;96244.57;;;1.89;48.23
48156;BME280;35568;48.104;11.782;2023-01-29T02:21:26;96243.47;;;2.13;48.05
48156;BME280;35568;48.104;11.782;2023-01-29T02:24:10;96245.33;;;2.49;48.01
48156;BME280;35568;48.104;11.782;2023-01-29T02:26:50;96245.88;;;2.51;47.65
48156;BME280;35568;48.104;11.782;2023-01-29T02:29:28;96243.49;;;2.33;47.80
48156;BME280;35568;48.104;11.782;2023-01-29T02:32:10;96246.05;;;2.38;47.52
48156;BME280;35568;48.104;11.782;2023-01-29T02:34:46;96246.27;;;1.81;47.97
48156;BME280;35568;48.104;11.782;2023-01-29T02:37:15;96238.66;;;2.24;47.65
48156;BME280;35568;48.104;11.782;2023-01-29T02:39:50;96239.16;;;1.93;47.58
48156;BME280;35568;48.104;11.782;2023-01-29T02:42:23;96235.79;;;2.29;47.66
48156;BME280;35568;48.104;11.782;2023-01-29T02:44:55;96236.00;;;2.38;47.52
48156;BME280;35568;48.104;11.782;2023-01-29T02:47:32;96231.39;;;2.49;47.63
48156;BME280;35568;48.104;11.782;2023-01-29T02:50:05;96220.80;;;1.61;48.21
48156;BME280;35568;48.104;11.782;2023-01-29T02:52:38;96216.17;;;1.62;48.49
48156;BME280;35568;48.104;11.782;2023-01-29T02:55:10;96217.49;;;1.65;48.08
48156;BME280;35568;48.104;11.782;2023-01-29T02:57:41;96225.27;;;2.10;47.91
48156;BME280;35568;48.104;11.782;2023-01-29T03:00:12;96219.72;;;1.67;48.11
48156;BME280;35568;48.104;11.782;2023-01-29T03:02:44;96220.75;;;2.14;48.19
48156;BME280;35568;48.104;11.782;2023-01-29T03:05:17;96217.27;;;2.15;48.53
48156;BME280;35568;48.104;11.782;2023-01-29T03:07:51;96219.08;;;2.06;48.04
48156;BME280;35568;48.104;11.782;2023-01-29T03:10:22;96220.79;;;2.33;47.62
48156;BME280;35568;48.104;11.782;2023-01-29T03:12:54;96215.59;;;1.87;48.12
48156;BME280;35568;48.104;11.782;2023-01-29T03:15:28;96218.70;;;2.23;48.03
48156;BME280;35568;48.104;11.782;2023-01-29T03:18:01;96218.65;;;1.87;48.03
48156;BME280;35568;48.104;11.782;2023-01-29T03:20:33;96219.23;;;1.68;48.53
48156;BME280;35568;48.104;11.782;2023-01-29T03:23:08;96218.26;;;2.13;47.85
48156;BME280;35568;48.104;11.782;2023-01-29T03:25:38;96217.35;;;2.03;47.97
48156;BME280;35568;48.104;11.782;2023-01-29T03:28:09;96217.28;;;1.78;48.22
48156;BME280;35568;48.104;11.782;2023-01-29T03:30:43;96222.76;;;1.40;48.44
48156;BME280;35568;48.104;11.782;2023-01-29T03:33:14;96220.17;;;2.18;47.89
48156;BME280;35568;48.104;11.782;2023-01-29T03:35:48;96224.28;;;2.19;47.74
48156;BME280;35568;48.104;11.782;2023-01-29T03:38:16;96226.11;;;1.80;47.91
48156;BME280;35568;48.104;11.782;2023-01-29T03:40:48;96227.44;;;2.48;47.75
48156;BME280;35568;48.104;11.782;2023-01-29T03:43:24;96228.39;;;2.30;47.48
48156;BME280;35568;48.104;11.782;2023-01-29T03:45:59;96224.64;;;2.18;47.11
48156;BME280;35568;48.104;11.782;2023-01-29T03:48:31;96222.64;;;2.18;46.94
48156;BME280;35568;48.104;11.782;2023-01-29T03:51:10;96221.56;;;2.13;47.02
48156;BME280;35568;48.104;11.782;2023-01-29T03:53:42;96219.97;;;2.11;47.29
48156;BME280;35568;48.104;11.782;2023-01-29T03:56:21;96216.58;;;2.22;46.93
48156;BME280;35568;48.104;11.782;2023-01-29T03:58:57;96212.67;;;2.16;46.89
48156;BME280;35568;48.104;11.782;2023-01-29T04:03:04;96209.63;;;2.57;45.73
48156;BME280;35568;48.104;11.782;2023-01-29T04:05:39;96203.31;;;2.47;45.89
48156;BME280;35568;48.104;11.782;2023-01-29T04:08:11;96196.38;;;1.92;46.84
48156;BME280;35568;48.104;11.782;2023-01-29T04:10:42;96195.94;;;2.10;47.08
48156;BME280;35568;48.104;11.782;2023-01-29T04:13:12;96189.81;;;1.77;47.37
48156;BME280;35568;48.104;11.782;2023-01-29T04:15:44;96186.00;;;1.51;47.55
48156;BME280;35568;48.104;11.782;2023-01-29T04:18:12;96181.62;;;1.60;47.57
48156;BME280;35568;48.104;11.782;2023-01-29T04:20:40;96183.78;;;2.13;47.14
48156;BME280;35568;48.104;11.782;2023-01-29T04:23:19;96183.93;;;2.35;47.31
48156;BME280;35568;48.104;11.782;2023-01-29T04:25:53;96185.60;;;2.42;47.05
48156;BME280;35568;48.104;11.782;2023-01-29T04:28:27;96191.66;;;1.95;46.87
48156;BME280;35568;48.104;11.782;2023-01-29T04:31:04;96195.22;;;2.18;46.69
48156;BME280;35568;48.104;11.782;2023-01-29T04:33:37;96190.96;;;2.14;46.44
48156;BME280;35568;48.104;11.782;2023-01-29T04:36:19;96189.43;;;1.95;46.46
48156;BME280;35568;48.104;11.782;2023-01-29T04:38:58;96189.15;;;2.47;46.35
48156;BME280;35568;48.104;11.782;2023-01-29T04:41:32;96190.21;;;2.01;46.30
48156;BME280;35568;48.104;11.782;2023-01-29T04:44:05;96190.73;;;2.61;46.28
48156;BME280;35568;48.104;11.782;2023-01-29T04:46:43;96195.21;;;2.32;46.27
48156;BME280;35568;48.104;11.782;2023-01-29T04:49:20;96196.78;;;2.17;46.68
48156;BME280;35568;48.104;11.782;2023-01-29T04:51:59;96197.17;;;1.76;46.66
48156;BME280;35568;48.104;11.782;2023-01-29T04:54:33;96200.00;;;2.05;46.55
48156;BME280;35568;48.104;11.782;2023-01-29T04:57:05;96197.29;;;2.18;46.31
48156;BME280;35568;48.104;11.782;2023-01-29T04:59:38;96196.79;;;2.16;46.46
48156;BME280;35568;48.104;11.782;2023-01-29T05:02:09;96195.78;;;1.91;46.62
48156;BME280;35568;48.104;11.782;2023-01-29T05:04:39;96193.68;;;2.33;46.90
48156;BME280;35568;48.104;11.782;2023-01-29T05:07:11;96196.09;;;2.13;46.70
48156;BME280;35568;48.104;11.782;2023-01-29T05:09:41;96200.64;;;1.81;46.78
48156;BME280;35568;48.104;11.782;2023-01-29T05:12:11;96199.67;;;1.87;46.60
48156;BME280;35568;48.104;11.782;2023-01-29T05:14:42;96202.11;;;1.68;47.00
48156;BME280;35568;48.104;11.782;2023-01-29T05:17:14;96204.59;;;1.99;47.00
48156;BME280;35568;48.104;11.782;2023-01-29T05:19:41;96207.51;;;2.30;46.97
48156;BME280;35568;48.104;11.782;2023-01-29T05:22:09;96210.69;;;1.84;46.88
48156;BME280;35568;48.104;11.782;2023-01-29T05:24:37;96214.63;;;2.18;46.51
48156;BME280;35568;48.104;11.782;2023-01-29T05:27:04;96215.00;;;2.35;46.71
48156;BME280;35568;48.104;11.782;2023-01-29T05:29:32;96216.01;;;2.19;46.52
48156;BME280;35568;48.104;11.782;2023-01-29T05:31:59;96219.87;;;1.99;46.85
48156;BME280;35568;48.104;11.782;2023-01-29T05:34:27;96221.07;;;2.09;46.77
48156;BME280;35568;48.104;11.782;2023-01-29T05:36:53;96224.20;;;1.89;46.71
48156;BME280;35568;48.104;11.782;2023-01-29T05:39:21;96225.61;;;1.91;46.64
48156;BME280;35568;48.104;11.782;2023-01-29T05:41:47;96229.52;;;2.20;46.71
48156;BME280;35568;48.104;11.782;2023-01-29T05:44:15;96235.83;;;1.54;47.00
48156;BME280;35568;48.104;11.782;2023-01-29T05:46:42;96243.77;;;1.90;47.34
48156;BME280;35568;48.104;11.782;2023-01-29T05:49:09;96245.63;;;1.82;47.67
48156;BME280;35568;48.104;11.782;2023-01-29T05:51:36;96245.80;;;1.86;47.71
48156;BME280;35568;48.104;11.782;2023-01-29T05:54:04;96242.86;;;1.76;47.73
48156;BME280;35568;48.104;11.782;2023-01-29T05:56:30;96242.41;;;1.87;47.68
48156;BME280;35568;48.104;11.782;2023-01-29T05:58:57;96246.42;;;1.75;47.77
48156;BME280;35568;48.104;11.782;2023-01-29T06:01:25;96243.82;;;1.67;47.90
48156;BME280;35568;48.104;11.782;2023-01-29T06:03:52;96232.50;;;1.78;47.55
48156;BME280;35568;48.104;11.782;2023-01-29T06:06:19;96229.35;;;1.92;47.48
48156;BME280;35568;48.104;11.782;2023-01-29T06:08:47;96235.25;;;2.03;47.48
48156;BME280;35568;48.104;11.782;2023-01-29T06:11:14;96237.94;;;1.92;47.55
48156;BME280;35568;48.104;11.782;2023-01-29T06:13:42;96235.49;;;1.11;47.58
48156;BME280;35568;48.104;11.782;2023-01-29T06:16:11;96234.89;;;1.96;47.03
48156;BME280;35568;48.104;11.782;2023-01-29T06:18:40;96230.97;;;2.39;46.75
48156;BME280;35568;48.104;11.782;2023-01-29T06:21:11;96229.97;;;2.37;46.91
48156;BME280;35568;48.104;11.782;2023-01-29T06:23:39;96231.12;;;1.97;46.70
48156;BME280;35568;48.104;11.782;2023-01-29T06:26:08;96236.04;;;2.46;46.68
48156;BME280;35568;48.104;11.782;2023-01-29T06:28:36;96240.45;;;2.29;46.27
48156;BME280;35568;48.104;11.782;2023-01-29T06:31:04;96240.65;;;2.27;46.24
48156;BME280;35568;48.104;11.782;2023-01-29T06:33:32;96241.20;;;2.26;46.29
48156;BME280;35568;48.104;11.782;2023-01-29T06:36:00;96241.17;;;1.91;46.23
48156;BME280;35568;48.104;11.782;2023-01-29T06:38:28;96240.74;;;2.17;46.32
48156;BME280;35568;48.104;11.782;2023-01-29T06:40:56;96242.53;;;1.88;46.24
48156;BME280;35568;48.104;11.782;2023-01-29T06:43:23;96244.72;;;2.05;46.65
48156;BME280;35568;48.104;11.782;2023-01-29T06:45:51;96246.52;;;2.07;46.51
48156;BME280;35568;48.104;11.782;2023-01-29T06:48:19;96250.42;;;2.39;46.14
48156;BME280;35568;48.104;11.782;2023-01-29T06:50:46;96248.87;;;2.14;45.97
48156;BME280;35568;48.104;11.782;2023-01-29T06:53:18;96247.74;;;1.83;45.68
48156;BME280;35568;48.104;11.782;2023-01-29T06:55:50;96253.56;;;1.97;45.95
48156;BME280;35568;48.104;11.782;2023-01-29T06:58:18;96248.92;;;1.82;46.02
48156;BME280;35568;48.104;11.782;2023-01-29T07:00:45;96245.66;;;2.04;46.25
48156;BME280;35568;48.104;11.782;2023-01-29T07:03:13;96243.62;;;2.07;45.97
48156;BME280;35568;48.104;11.782;2023-01-29T07:05:40;96240.56;;;1.73;46.01
48156;BME280;35568;48.104;11.782;2023-01-29T07:08:06;96238.58;;;2.24;45.98
48156;BME280;35568;48.104;11.782;2023-01-29T07:10:33;96236.29;;;1.90;45.90
48156;BME280;35568;48.104;11.782;2023-01-29T07:13:01;96240.91;;;1.99;45.58
48156;BME280;35568;48.104;11.782;2023-01-29T07:15:27;96243.55;;;2.35;45.67
48156;BME280;35568;48.104;11.782;2023-01-29T07:17:57;96242.24;;;2.24;45.95
48156;BME280;35568;48.104;11.782;2023-01-29T07:20:24;96239.22;;;1.95;45.69
48156;BME280;35568;48.104;11.782;2023-01-29T07:22:52;96237.95;;;2.02;45.59
48156;BME280;35568;48.104;11.782;2023-01-29T07:25:19;96233.45;;;2.38;45.60
48156;BME280;35568;48.104;11.782;2023-01-29T07:27:46;96224.92;;;2.30;45.36
48156;BME280;35568;48.104;11.782;2023-01-29T07:30:13;96221.03;;;2.37;45.02
48156;BME280;35568;48.104;11.782;2023-01-29T07:32:41;96223.12;;;2.02;45.23
48156;BME280;35568;48.104;11.782;2023-01-29T07:35:08;96227.95;;;2.16;45.47
48156;BME280;35568;48.104;11.782;2023-01-29T07:37:36;96226.90;;;2.14;44.94
48156;BME280;35568;48.104;11.782;2023-01-29T07:40:03;96219.99;;;2.33;45.63
48156;BME280;35568;48.104;11.782;2023-01-29T07:42:31;96217.74;;;2.00;45.58
48156;BME280;35568;48.104;11.782;2023-01-29T07:44:58;96214.59;;;2.22;45.97
48156;BME280;35568;48.104;11.782;2023-01-29T07:47:25;96215.32;;;2.25;45.54
48156;BME280;35568;48.104;11.782;2023-01-29T07:49:52;96213.60;;;2.38;45.25
48156;BME280;35568;48.104;11.782;2023-01-29T07:52:19;96213.55;;;2.14;45.20
48156;BME280;35568;48.104;11.782;2023-01-29T07:54:45;96213.71;;;2.16;45.29
48156;BME280;35568;48.104;11.782;2023-01-29T07:57:12;96212.82;;;2.53;44.88
48156;BME280;35568;48.104;11.782;2023-01-29T07:59:39;96210.77;;;2.54;44.69
48156;BME280;35568;48.104;11.782;2023-01-29T08:02:08;96203.05;;;2.47;43.89
48156;BME280;35568;48.104;11.782;2023-01-29T08:04:35;96203.39;;;3.00;43.64
48156;BME280;35568;48.104;11.782;2023-01-29T08:07:02;96201.84;;;2.51;43.10
48156;BME280;35568;48.104;11.782;2023-01-29T08:09:28;96199.92;;;1.60;43.82
48156;BME280;35568;48.104;11.782;2023-01-29T08:11:56;96198.02;;;2.13;43.32
48156;BME280;35568;48.104;11.782;2023-01-29T08:14:22;96198.45;;;1.73;43.95
48156;BME280;35568;48.104;11.782;2023-01-29T08:16:49;96201.68;;;1.89;44.46
48156;BME280;35568;48.104;11.782;2023-01-29T08:19:17;96203.17;;;2.27;44.07
48156;BME280;35568;48.104;11.782;2023-01-29T08:21:43;96204.84;;;2.10;44.57
48156;BME280;35568;48.104;11.782;2023-01-29T08:24:10;96204.64;;;1.87;45.09
48156;BME280;35568;48.104;11.782;2023-01-29T08:26:36;96206.26;;;1.66;45.28
48156;BME280;35568;48.104;11.782;2023-01-29T08:29:03;96208.30;;;1.87;45.39
48156;BME280;35568;48.104;11.782;2023-01-29T08:31:30;96213.95;;;1.94;45.59
48156;BME280;35568;48.104;11.782;2023-01-29T08:33:57;96216.43;;;2.17;45.39
48156;BME280;35568;48.104;11.782;2023-01-29T08:36:24;96212.18;;;2.21;45.15
48156;BME280;35568;48.104;11.782;2023-01-29T08:38:51;96212.83;;;3.13;44.90
48156;BME280;35568;48.104;11.782;2023-01-29T08:41:18;96221.14;;;2.91;44.12
48156;BME280;35568;48.104;11.782;2023-01-29T08:43:45;96228.29;;;2.83;44.52
48156;BME280;35568;48.104;11.782;2023-01-29T08:46:12;96238.00;;;2.62;44.42
48156;BME280;35568;48.104;11.782;2023-01-29T08:48:39;96243.23;;;2.72;44.11
48156;BME280;35568;48.104;11.782;2023-01-29T08:51:06;96245.16;;;2.50;43.45
48156;BME280;35568;48.104;11.782;2023-01-29T08:53:33;96244.28;;;2.40;42.08
48156;BME280;35568;48.104;11.782;2023-01-29T08:56:00;96247.68;;;2.58;41.52
48156;BME280;35568;48.104;11.782;2023-01-29T08:58:28;96252.11;;;2.73;41.83
48156;BME280;35568;48.104;11.782;2023-01-29T09:00:54;96252.10;;;2.58;42.18
48156;BME280;35568;48.104;11.782;2023-01-29T09:03:21;96255.10;;;2.89;40.67
48156;BME280;35568;48.104;11.782;2023-01-29T09:05:48;96255.74;;;3.00;40.84
48156;BME280;35568;48.104;11.782;2023-01-29T09:08:15;96252.55;;;3.05;40.73
48156;BME280;35568;48.104;11.782;2023-01-29T09:10:42;96256.89;;;2.88;41.17
48156;BME280;35568;48.104;11.782;2023-01-29T09:13:10;96257.73;;;3.25;40.88
48156;BME280;35568;48.104;11.782;2023-01-29T09:15:37;96262.27;;;3.37;40.91
48156;BME280;35568;48.104;11.782;2023-01-29T09:18:04;96266.42;;;3.13;39.79
48156;BME280;35568;48.104;11.782;2023-01-29T09:20:31;96265.84;;;2.86;40.10
48156;BME280;35568;48.104;11.782;2023-01-29T09:23:03;96267.52;;;2.94;40.80
48156;BME280;35568;48.104;11.782;2023-01-29T09:25:30;96271.75;;;3.06;40.31
48156;BME280;35568;48.104;11.782;2023-01-29T09:27:57;96278.31;;;3.40;40.04
48156;BME280;35568;48.104;11.782;2023-01-29T09:30:24;96281.86;;;3.34;39.60
48156;BME280;35568;48.104;11.782;2023-01-29T09:32:50;96283.65;;;3.33;40.40
48156;BME280;35568;48.104;11.782;2023-01-29T09:35:17;96284.99;;;3.10;41.01
48156;BME280;35568;48.104;11.782;2023-01-29T09:37:46;96290.85;;;3.35;40.28
48156;BME280;35568;48.104;11.782;2023-01-29T09:40:22;96291.55;;;3.06;40.65
48156;BME280;35568;48.104;11.782;2023-01-29T09:42:54;96290.83;;;3.06;40.86
48156;BME280;35568;48.104;11.782;2023-01-29T09:45:26;96292.50;;;3.22;40.95
48156;BME280;35568;48.104;11.782;2023-01-29T09:47:56;96295.26;;;3.08;41.05
48156;BME280;35568;48.104;11.782;2023-01-29T09:50:28;96297.67;;;2.93;40.27
48156;BME280;35568;48.104;11.782;2023-01-29T09:52:59;96303.37;;;2.66;41.05
48156;BME280;35568;48.104;11.782;2023-01-29T09:55:30;96305.49;;;2.65;40.71
48156;BME280;35568;48.104;11.782;2023-01-29T09:57:59;96303.27;;;2.59;42.11
48156;BME280;35568;48.104;11.782;2023-01-29T10:00:34;96302.13;;;2.41;41.51
48156;BME280;35568;48.104;11.782;2023-01-29T10:03:15;96305.10;;;2.78;41.63
48156;BME280;35568;48.104;11.782;2023-01-29T10:05:57;96299.87;;;2.55;40.92
48156;BME280;35568;48.104;11.782;2023-01-29T10:08:44;96298.34;;;2.51;41.12
48156;BME280;35568;48.104;11.782;2023-01-29T10:11:27;96294.08;;;2.56;40.60
48156;BME280;35568;48.104;11.782;2023-01-29T10:14:04;96293.10;;;3.02;40.74
48156;BME280;35568;48.104;11.782;2023-01-29T10:16:47;96290.43;;;2.60;40.73
48156;BME280;35568;48.104;11.782;2023-01-29T10:19:39;96290.32;;;2.92;40.34
48156;BME280;35568;48.104;11.782;2023-01-29T10:22:27;96289.43;;;3.24;39.94
48156;BME280;35568;48.104;11.782;2023-01-29T10:25:03;96284.52;;;3.07;40.16
48156;BME280;35568;48.104;11.782;2023-01-29T10:27:32;96281.88;;;2.76;40.06
48156;BME280;35568;48.104;11.782;2023-01-29T10:30:00;96283.49;;;2.92;40.50
48156;BME280;35568;48.104;11.782;2023-01-29T10:32:29;96282.58;;;2.82;40.29
48156;BME280;35568;48.104;11.782;2023-01-29T10:35:00;96280.73;;;3.23;40.13
48156;BME280;35568;48.104;11.782;2023-01-29T10:37:36;96278.57;;;3.37;39.49
48156;BME280;35568;48.104;11.782;2023-01-29T10:40:17;96279.62;;;3.55;38.86
48156;BME280;35568;48.104;11.782;2023-01-29T10:42:47;96278.22;;;3.48;38.56
48156;BME280;35568;48.104;11.782;2023-01-29T10:45:23;96277.25;;;3.59;38.83
48156;BME280;35568;48.104;11.782;2023-01-29T10:48:03;96278.65;;;3.12;39.25
48156;BME280;35568;48.104;11.782;2023-01-29T10:50:44;96276.81;;;2.96;39.86
48156;BME280;35568;48.104;11.782;2023-01-29T10:53:55;96271.19;;;3.52;38.97
48156;BME280;35568;48.104;11.782;2023-01-29T10:56:38;96270.37;;;3.66;39.07
48156;BME280;35568;48.104;11.782;2023-01-29T10:59:24;96269.72;;;3.54;39.20
48156;BME280;35568;48.104;11.782;2023-01-29T11:01:56;96270.95;;;3.80;38.59
48156;BME280;35568;48.104;11.782;2023-01-29T11:04:24;96265.80;;;3.76;38.53
48156;BME280;35568;48.104;11.782;2023-01-29T11:06:52;96262.01;;;3.81;38.65
48156;BME280;35568;48.104;11.782;2023-01-29T11:09:25;96261.63;;;3.41;39.15
48156;BME280;35568;48.104;11.782;2023-01-29T11:11:58;96257.81;;;3.08;39.43
48156;BME280;35568;48.104;11.782;2023-01-29T11:14:28;96258.80;;;2.58;39.28
48156;BME280;35568;48.104;11.782;2023-01-29T11:16:57;96258.23;;;2.81;39.95
48156;BME280;35568;48.104;11.782;2023-01-29T11:19:36;96254.21;;;3.26;39.76
48156;BME280;35568;48.104;11.782;2023-01-29T11:22:03;96252.34;;;3.31;39.70
48156;BME280;35568;48.104;11.782;2023-01-29T11:24:30;96255.06;;;3.53;38.63
48156;BME280;35568;48.104;11.782;2023-01-29T11:26:58;96254.23;;;3.61;38.63
48156;BME280;35568;48.104;11.782;2023-01-29T11:29:32;96254.54;;;3.42;38.64
48156;BME280;35568;48.104;11.782;2023-01-29T11:32:01;96247.93;;;3.61;37.84
48156;BME280;35568;48.104;11.782;2023-01-29T11:34:30;96241.97;;;3.79;38.53
48156;BME280;35568;48.104;11.782;2023-01-29T11:36:58;96242.18;;;3.80;38.68
48156;BME280;35568;48.104;11.782;2023-01-29T11:39:27;96241.73;;;4.04;38.69
48156;BME280;35568;48.104;11.782;2023-01-29T11:41:56;96237.97;;;4.24;38.30
48156;BME280;35568;48.104;11.782;2023-01-29T11:44:30;96234.65;;;4.27;38.22
48156;BME280;35568;48.104;11.782;2023-01-29T11:47:10;96229.80;;;4.29;38.22
48156;BME280;35568;48.104;11.782;2023-01-29T11:49:39;96226.76;;;3.80;38.02
48156;BME280;35568;48.104;11.782;2023-01-29T11:52:08;96219.83;;;3.56;38.92
48156;BME280;35568;48.104;11.782;2023-01-29T11:54:41;96217.91;;;2.97;38.53
48156;BME280;35568;48.104;11.782;2023-01-29T11:57:23;96207.34;;;2.83;38.81
48156;BME280;35568;48.104;11.782;2023-01-29T11:59:53;96186.30;;;2.94;39.71
48156;BME280;35568;48.104;11.782;2023-01-29T12:02:26;96180.57;;;2.51;39.94
48156;BME280;35568;48.104;11.782;2023-01-29T12:04:56;96172.85;;;2.63;40.20
48156;BME280;35568;48.104;11.782;2023-01-29T12:07:25;96160.31;;;3.20;39.39
48156;BME280;35568;48.104;11.782;2023-01-29T12:09:55;96157.37;;;2.50;39.62
48156;BME280;35568;48.104;11.782;2023-01-29T12:12:33;96149.82;;;2.56;40.44
48156;BME280;35568;48.104;11.782;2023-01-29T12:15:09;96144.52;;;2.51;39.79
48156;BME280;35568;48.104;11.782;2023-01-29T12:17:44;96137.32;;;2.98;39.97
48156;BME280;35568;48.104;11.782;2023-01-29T12:20:15;96137.63;;;3.22;39.52
48156;BME280;35568;48.104;11.782;2023-01-29T12:22:48;96137.64;;;3.20;39.51
48156;BME280;35568;48.104;11.782;2023-01-29T12:25:21;96141.10;;;2.88;39.97
48156;BME280;35568;48.104;11.782;2023-01-29T12:27:55;96138.65;;;2.49;40.11
48156;BME280;35568;48.104;11.782;2023-01-29T12:30:28;96141.22;;;2.93;40.32
48156;BME280;35568;48.104;11.782;2023-01-29T12:33:01;96145.40;;;3.27;39.73
48156;BME280;35568;48.104;11.782;2023-01-29T12:35:34;96157.02;;;3.06;39.43
48156;BME280;35568;48.104;11.782;2023-01-29T12:38:05;96160.29;;;3.33;40.36
48156;BME280;35568;48.104;11.782;2023-01-29T12:40:40;96159.54;;;3.27;39.39
48156;BME280;35568;48.104;11.782;2023-01-29T12:43:14;96162.87;;;3.52;40.24
48156;BME280;35568;48.104;11.782;2023-01-29T12:45:42;96154.02;;;3.32;39.89
48156;BME280;35568;48.104;11.782;2023-01-29T12:48:14;96147.01;;;3.45;39.17
48156;BME280;35568;48.104;11.782;2023-01-29T12:50:46;96140.60;;;2.99;39.48
48156;BME280;35568;48.104;11.782;2023-01-29T12:53:24;96135.16;;;3.04;38.98
48156;BME280;35568;48.104;11.782;2023-01-29T12:55:54;96131.67;;;3.27;38.99
48156;BME280;35568;48.104;11.782;2023-01-29T12:58:28;96125.10;;;3.37;38.81
48156;BME280;35568;48.104;11.782;2023-01-29T13:00:59;96122.66;;;3.07;39.71
48156;BME280;35568;48.104;11.782;2023-01-29T13:03:33;96117.68;;;3.72;39.46
48156;BME280;35568;48.104;11.782;2023-01-29T13:06:09;96118.85;;;3.29;39.74
48156;BME280;35568;48.104;11.782;2023-01-29T13:08:40;96115.03;;;2.33;40.21
48156;BME280;35568;48.104;11.782;2023-01-29T13:11:13;96104.28;;;2.47;40.18
48156;BME280;35568;48.104;11.782;2023-01-29T13:13:48;96097.99;;;2.54;40.69
48156;BME280;35568;48.104;11.782;2023-01-29T13:16:18;96097.39;;;2.00;40.89
48156;BME280;35568;48.104;11.782;2023-01-29T13:18:48;96095.49;;;2.20;41.21